Time;durP1;ratioP1;P1;durP2;ratioP2;P2;SDS_P1;SDS_P2;PMS_P1;PMS_P2;Temp;Humidity;BMP_temperature;BMP_pressure;BME280_temperature;BME280_humidity;BME280_pressure;Samples;Min_cycle;Max_cycle;Signal;HPM_P1;HPM_P2
2022/04/10 00:03:45;;;;;;;4.68;2.58;;;;;;;5.21;61.16;100297.47;10237081;28;20694;-64
2022/04/10 00:08:47;;;;;;;6.25;2.30;;;;;;;5.09;61.86;100319.28;10246553;28;20083;-63
2022/04/10 00:13:48;;;;;;;4.20;2.22;;;;;;;5.13;61.68;100323.44;10234210;28;20170;-63
2022/04/10 00:18:51;;;;;;;4.90;2.70;;;;;;;5.52;60.51;100327.34;10247997;28;20527;-63
2022/04/10 00:23:53;;;;;;;6.55;2.35;;;;;;;5.64;58.90;100325.78;10234941;28;20051;-62
2022/04/10 00:28:56;;;;;;;5.28;2.00;;;;;;;5.63;58.76;100309.09;10234274;28;20544;-63
2022/04/10 00:33:58;;;;;;;5.60;2.22;;;;;;;5.72;59.41;100317.41;10236565;28;20590;-63
2022/04/10 00:39:00;;;;;;;2.75;1.75;;;;;;;5.75;59.04;100317.22;10239867;28;20059;-64
2022/04/10 00:44:05;;;;;;;5.72;2.30;;;;;;;5.78;59.52;100322.31;10230799;28;20138;-63
2022/04/10 00:49:07;;;;;;;4.60;2.10;;;;;;;5.65;58.62;100317.78;10229888;28;20046;-63
2022/04/10 00:54:18;;;;;;;6.90;3.15;;;;;;;5.66;60.14;100311.56;10235212;28;20133;-63
2022/04/10 00:59:21;;;;;;;3.42;2.03;;;;;;;5.69;59.19;100310.53;10231519;28;20075;-63
2022/04/10 01:04:22;;;;;;;4.18;2.45;;;;;;;5.77;59.94;100333.84;10238845;28;20134;-65
2022/04/10 01:09:24;;;;;;;3.78;2.05;;;;;;;5.64;59.39;100329.31;10234183;28;20051;-63
2022/04/10 01:14:26;;;;;;;3.85;2.10;;;;;;;5.65;60.42;100333.63;10236497;28;20628;-63
2022/04/10 01:19:28;;;;;;;3.65;1.88;;;;;;;5.60;59.72;100330.41;10255805;28;20073;-64
2022/04/10 01:24:31;;;;;;;5.88;2.08;;;;;;;5.29;59.48;100337.44;10245943;28;20526;-62
2022/04/10 01:29:33;;;;;;;3.30;1.85;;;;;;;5.48;58.87;100347.81;10240267;28;20826;-63
2022/04/10 01:34:39;;;;;;;2.65;1.25;;;;;;;5.55;59.18;100356.22;10237344;28;20134;-63
2022/04/10 01:39:40;;;;;;;4.75;2.45;;;;;;;5.62;59.20;100349.66;10235464;28;20134;-63
2022/04/10 01:44:42;;;;;;;2.90;1.90;;;;;;;5.41;59.21;100332.44;10235886;28;20051;-63
2022/04/10 01:49:44;;;;;;;5.68;2.20;;;;;;;5.43;59.00;100333.19;10238517;28;20431;-63
2022/04/10 01:54:45;;;;;;;3.60;1.95;;;;;;;5.57;58.93;100349.06;10238520;28;20519;-63
2022/04/10 01:59:46;;;;;;;4.20;1.80;;;;;;;5.52;58.68;100340.56;10239175;28;20396;-63
2022/04/10 02:04:48;;;;;;;3.75;1.80;;;;;;;5.51;58.44;100338.88;10238679;28;20161;-62
2022/04/10 02:09:49;;;;;;;4.53;1.70;;;;;;;5.63;58.06;100353.13;10239869;28;20149;-63
2022/04/10 02:14:50;;;;;;;2.80;2.25;;;;;;;5.55;58.48;100352.75;10234244;28;20142;-61
2022/04/10 02:19:52;;;;;;;4.20;1.65;;;;;;;5.58;57.92;100345.47;10238698;28;20141;-63
2022/04/10 02:24:53;;;;;;;5.25;2.10;;;;;;;5.51;58.09;100346.81;10250214;28;20057;-62
2022/04/10 02:29:55;;;;;;;4.00;1.77;;;;;;;5.48;58.40;100336.41;10239165;28;20125;-63
2022/04/10 02:34:56;;;;;;;5.32;1.88;;;;;;;5.57;58.41;100351.72;10242274;28;20055;-65
2022/04/10 02:39:57;;;;;;;3.17;2.15;;;;;;;5.54;58.86;100351.91;10243378;28;20051;-63
2022/04/10 02:45:00;;;;;;;4.43;2.33;;;;;;;5.46;58.97;100348.84;10239617;28;20046;-62
2022/04/10 02:50:02;;;;;;;5.18;2.42;;;;;;;5.50;59.36;100345.09;10249038;28;20130;-64
2022/04/10 02:55:04;;;;;;;3.10;2.13;;;;;;;5.57;59.42;100361.41;10262824;28;20078;-63
2022/04/10 03:00:06;;;;;;;3.97;2.38;;;;;;;5.43;60.27;100349.84;10236502;28;20054;-62
2022/04/10 03:05:08;;;;;;;4.97;2.53;;;;;;;5.48;61.81;100357.53;10235764;28;20053;-63
2022/04/10 03:10:10;;;;;;;4.60;3.17;;;;;;;5.40;61.02;100362.38;10229413;28;20118;-65
2022/04/10 03:15:12;;;;;;;3.95;2.58;;;;;;;5.37;61.30;100362.56;10234882;28;20073;-63
2022/04/10 03:20:13;;;;;;;4.47;2.58;;;;;;;5.24;61.33;100365.91;10227540;28;20064;-63
2022/04/10 03:25:14;;;;;;;3.97;2.90;;;;;;;5.23;62.39;100374.75;10226500;28;20062;-63
2022/04/10 03:30:16;;;;;;;6.13;2.92;;;;;;;5.32;62.37;100381.31;10230426;28;20050;-63
2022/04/10 03:35:17;;;;;;;5.85;3.35;;;;;;;5.16;62.38;100370.75;10229150;28;20533;-63
2022/04/10 03:40:19;;;;;;;5.43;2.70;;;;;;;5.11;62.73;100380.72;10232655;28;20057;-62
2022/04/10 03:45:22;;;;;;;3.42;2.58;;;;;;;5.06;62.07;100393.31;10230537;28;20051;-62
2022/04/10 03:50:26;;;;;;;4.45;2.60;;;;;;;5.05;62.01;100389.81;10232313;28;20066;-62
2022/04/10 03:55:27;;;;;;;4.18;2.70;;;;;;;5.16;61.66;100409.50;10239053;28;20062;-64
2022/04/10 04:00:29;;;;;;;4.82;2.92;;;;;;;5.07;60.21;100395.03;10231075;28;20094;-64
2022/04/10 04:05:30;;;;;;;3.58;2.60;;;;;;;4.90;62.57;100414.41;10231566;28;20130;-63
2022/04/10 04:10:32;;;;;;;4.97;2.95;;;;;;;4.89;61.61;100407.44;10231737;28;20069;-64
2022/04/10 04:15:33;;;;;;;6.15;2.60;;;;;;;5.05;60.79;100412.75;10237670;28;20486;-62
2022/04/10 04:20:35;;;;;;;3.78;2.60;;;;;;;5.11;61.44;100438.78;10232653;28;20059;-63
2022/04/10 04:25:36;;;;;;;3.72;2.47;;;;;;;5.19;61.47;100452.41;10230901;28;20137;-63
2022/04/10 04:30:37;;;;;;;4.45;2.75;;;;;;;4.98;61.09;100428.03;10232164;28;20053;-61
2022/04/10 04:35:39;;;;;;;6.90;3.13;;;;;;;5.04;61.54;100454.09;10232429;28;20051;-63
2022/04/10 04:40:40;;;;;;;2.95;2.55;;;;;;;5.03;61.05;100446.25;10233418;28;20166;-63
2022/04/10 04:45:41;;;;;;;3.72;2.88;;;;;;;5.10;61.69;100461.69;10233302;28;20059;-63
2022/04/10 04:50:44;;;;;;;4.25;3.05;;;;;;;4.89;61.32;100462.81;10237059;28;20065;-63
2022/04/10 04:55:45;;;;;;;5.43;3.42;;;;;;;4.92;61.16;100468.81;10233713;28;20055;-63
2022/04/10 05:00:47;;;;;;;5.43;3.28;;;;;;;5.00;61.91;100475.44;10236872;28;20066;-63
2022/04/10 05:05:48;;;;;;;6.93;3.05;;;;;;;5.10;61.33;100489.84;10233809;28;20057;-63
2022/04/10 05:10:49;;;;;;;5.35;3.58;;;;;;;5.09;61.23;100488.16;10251120;28;20051;-63
2022/04/10 05:15:52;;;;;;;6.88;3.38;;;;;;;5.05;61.43;100487.47;10238282;28;20055;-62
2022/04/10 05:20:53;;;;;;;6.05;3.50;;;;;;;5.21;61.03;100513.00;10243338;28;20047;-62
2022/04/10 05:25:56;;;;;;;4.80;3.60;;;;;;;5.22;61.83;100512.09;10243315;28;20150;-63
2022/04/10 05:30:57;;;;;;;7.00;4.20;;;;;;;5.03;61.40;100510.44;10237915;28;20058;-63
2022/04/10 05:36:00;;;;;;;5.20;3.40;;;;;;;5.15;61.43;100522.13;10235451;28;20830;-64
2022/04/10 05:41:01;;;;;;;3.90;2.95;;;;;;;5.32;61.02;100535.25;10232158;28;20059;-63
2022/04/10 05:46:03;;;;;;;5.55;3.28;;;;;;;5.59;60.01;100542.63;10223874;28;20461;-63
2022/04/10 05:51:06;;;;;;;5.75;3.20;;;;;;;5.72;59.20;100548.09;10215149;28;20075;-62
2022/04/10 05:56:08;;;;;;;6.32;3.08;;;;;;;5.82;59.03;100557.19;10234916;28;20065;-62
2022/04/10 06:01:09;;;;;;;5.07;3.30;;;;;;;5.91;58.66;100566.38;10224264;28;20058;-61
2022/04/10 06:06:11;;;;;;;5.60;3.08;;;;;;;6.01;58.43;100551.75;10216495;28;20132;-60
2022/04/10 06:11:12;;;;;;;6.00;2.20;;;;;;;6.14;58.04;100561.63;10234373;28;20624;-60
2022/04/10 06:16:14;;;;;;;5.00;2.45;;;;;;;6.12;57.40;100553.78;10219378;28;20063;-62
2022/04/10 06:21:15;;;;;;;6.53;3.40;;;;;;;6.04;58.19;100563.94;10215503;28;20054;-61
2022/04/10 06:26:17;;;;;;;5.03;4.38;;;;;;;6.12;58.64;100560.84;10218169;28;20061;-62
2022/04/10 06:31:18;;;;;;;7.47;4.30;;;;;;;6.06;59.43;100563.84;10215476;28;20413;-62
2022/04/10 06:36:20;;;;;;;5.85;4.45;;;;;;;5.95;59.94;100567.06;10219818;28;20469;-62
2022/04/10 06:41:21;;;;;;;6.55;4.53;;;;;;;5.96;59.80;100574.91;10214439;28;20086;-64
2022/04/10 06:46:23;;;;;;;6.45;4.68;;;;;;;5.84;60.09;100581.72;10211368;28;20520;-64
2022/04/10 06:51:25;;;;;;;6.75;3.95;;;;;;;5.91;59.49;100561.09;10216106;28;20050;-64
2022/04/10 06:56:26;;;;;;;6.45;3.85;;;;;;;5.99;59.64;100552.75;10213083;28;20055;-63
2022/04/10 07:01:28;;;;;;;5.53;4.30;;;;;;;5.94;59.84;100582.06;10216401;28;20063;-63
2022/04/10 07:06:30;;;;;;;5.05;3.80;;;;;;;5.64;60.94;100585.50;10218059;28;20091;-61
2022/04/10 07:11:32;;;;;;;4.88;4.05;;;;;;;5.77;60.34;100584.81;10213058;28;20047;-60
2022/04/10 07:16:34;;;;;;;6.55;4.85;;;;;;;5.48;61.24;100574.06;10216606;28;20578;-62
2022/04/10 07:26:56;;;;;;;5.72;4.32;;;;;;;5.62;61.02;100613.75;10212072;28;20195;-62
2022/04/10 07:31:57;;;;;;;5.20;4.30;;;;;;;5.76;60.78;100615.63;10218054;28;20051;-62
2022/04/10 07:36:59;;;;;;;6.47;4.57;;;;;;;5.84;60.71;100621.38;10215415;28;20561;-61
2022/04/10 07:42:00;;;;;;;7.63;4.40;;;;;;;6.15;59.59;100626.75;10207174;28;20958;-63
2022/04/10 07:47:28;;;;;;;4.95;4.38;;;;;;;6.33;59.41;100636.28;10209592;28;20047;-62
2022/04/10 07:52:30;;;;;;;4.47;4.07;;;;;;;6.28;58.56;100621.66;10212051;28;20047;-64
2022/04/10 07:57:31;;;;;;;11.15;5.20;;;;;;;6.35;58.80;100634.44;10211781;28;20055;-60
2022/04/10 08:02:32;;;;;;;5.05;4.35;;;;;;;6.50;59.00;100638.00;10208470;28;20597;-62
2022/04/10 08:07:34;;;;;;;5.43;3.75;;;;;;;6.70;57.33;100647.41;10215248;28;20066;-62
2022/04/10 08:12:36;;;;;;;5.97;4.03;;;;;;;6.47;57.70;100643.47;10211360;28;20770;-61
2022/04/10 08:17:37;;;;;;;5.70;4.18;;;;;;;6.67;57.43;100650.25;10214877;28;20047;-61
2022/04/10 08:22:39;;;;;;;6.07;3.90;;;;;;;6.65;57.49;100652.13;10214258;28;20061;-62
2022/04/10 08:27:40;;;;;;;5.70;4.25;;;;;;;6.63;57.56;100642.56;10224206;28;21496;-61
2022/04/10 08:32:43;;;;;;;7.07;5.00;;;;;;;6.76;57.71;100626.84;10226591;28;20063;-62
2022/04/10 08:37:45;;;;;;;7.18;4.05;;;;;;;7.16;55.82;100645.66;10225933;28;20050;-62
2022/04/10 08:42:47;;;;;;;5.50;4.03;;;;;;;7.34;55.69;100657.78;10223374;28;20054;-61
2022/04/10 08:47:49;;;;;;;6.38;3.95;;;;;;;7.35;55.76;100635.63;10221301;28;20073;-62
2022/04/10 08:52:54;;;;;;;6.47;4.35;;;;;;;7.90;54.56;100670.28;10223168;28;20586;-61
2022/04/10 08:57:56;;;;;;;6.03;4.70;;;;;;;8.17;53.77;100664.16;10219430;28;20183;-61
2022/04/10 09:02:57;;;;;;;5.40;4.03;;;;;;;8.23;54.06;100671.75;10220792;28;20433;-61
2022/04/10 09:08:10;;;;;;;7.43;4.30;;;;;;;8.58;52.76;100658.03;10219239;28;20050;-63
2022/04/10 09:13:11;;;;;;;8.23;4.10;;;;;;;9.29;51.82;100653.28;10221647;28;20126;-63
2022/04/10 09:18:13;;;;;;;4.75;3.72;;;;;;;9.72;50.15;100652.94;10218597;28;20051;-61
2022/04/10 09:23:14;;;;;;;5.28;4.30;;;;;;;9.82;49.39;100679.75;10228201;28;20059;-61
2022/04/10 09:28:16;;;;;;;6.57;4.60;;;;;;;10.10;49.65;100667.97;10215817;28;20515;-60
2022/04/10 09:33:18;;;;;;;4.70;3.50;;;;;;;10.39;48.03;100654.44;10222463;28;20146;-60
2022/04/10 09:38:29;;;;;;;5.68;3.78;;;;;;;10.56;48.54;100661.16;10221728;28;20574;-61
2022/04/10 09:43:31;;;;;;;4.55;3.97;;;;;;;10.67;48.00;100652.38;10219154;28;20057;-61
2022/04/10 09:48:33;;;;;;;4.80;3.50;;;;;;;11.21;47.66;100657.13;10217429;28;20043;-61
2022/04/10 09:53:34;;;;;;;6.25;3.85;;;;;;;11.27;45.29;100671.81;10213478;28;20966;-63
2022/04/10 09:58:37;;;;;;;3.92;3.25;;;;;;;11.48;46.16;100651.50;10215379;28;20158;-63
2022/04/10 10:03:40;;;;;;;4.28;3.00;;;;;;;11.54;43.75;100634.16;10212597;28;20130;-62
2022/04/10 10:08:41;;;;;;;6.53;3.08;;;;;;;12.51;42.44;100634.41;10211625;28;20715;-62
2022/04/10 10:13:43;;;;;;;5.78;2.25;;;;;;;13.26;40.76;100637.94;10216174;28;20171;-61
2022/04/10 10:18:45;;;;;;;4.40;2.35;;;;;;;13.81;38.42;100627.94;10212256;28;20098;-61
2022/04/10 10:23:52;;;;;;;5.53;3.22;;;;;;;12.67;39.74;100628.66;10230656;28;20053;-61
2022/04/10 10:29:12;;;;;;;4.20;2.53;;;;;;;11.54;41.33;100638.66;10231302;28;20073;-62
2022/04/10 10:34:14;;;;;;;4.57;3.15;;;;;;;10.80;43.21;100634.50;10216000;28;20134;-61
2022/04/10 10:39:15;;;;;;;4.10;3.00;;;;;;;10.66;44.52;100640.00;10215926;28;20058;-61
2022/04/10 10:44:26;;;;;;;5.57;2.53;;;;;;;10.58;43.42;100620.16;10216940;28;20125;-61
2022/04/10 10:49:47;;;;;;;6.07;2.45;;;;;;;10.94;43.37;100625.47;10213735;28;20565;-62
2022/04/10 10:54:56;;;;;;;3.72;2.10;;;;;;;11.48;41.76;100614.19;10214678;28;20694;-62
2022/04/10 11:00:09;;;;;;;4.35;2.30;;;;;;;14.98;36.22;100606.66;10215088;28;20426;-62
2022/04/10 11:05:32;;;;;;;4.72;2.60;;;;;;;20.44;27.04;100595.38;10212041;28;20049;-62
2022/04/10 11:10:39;;;;;;;4.10;2.58;;;;;;;15.89;31.99;100590.84;10214066;28;20051;-61
2022/04/10 11:15:52;;;;;;;5.53;4.95;;;;;;;15.20;33.73;100594.78;10214196;28;20055;-61
2022/04/10 11:21:09;;;;;;;4.70;2.13;;;;;;;18.82;30.42;100588.50;10221581;28;20061;-62
2022/04/10 11:26:19;;;;;;;5.43;2.70;;;;;;;15.58;32.67;100584.06;10224060;28;20054;-60
2022/04/10 11:31:32;;;;;;;6.15;2.55;;;;;;;13.12;37.26;100586.63;10216206;28;20047;-62
2022/04/10 11:36:52;;;;;;;3.72;2.20;;;;;;;12.61;39.21;100585.59;10214854;28;20106;-61
2022/04/10 11:42:00;;;;;;;5.68;3.35;;;;;;;11.71;39.99;100581.31;10213712;28;21089;-62
2022/04/10 11:47:08;;;;;;;6.03;2.58;;;;;;;11.10;41.44;100574.53;10213699;28;20105;-63
2022/04/10 11:52:10;;;;;;;6.00;2.38;;;;;;;10.86;41.98;100585.28;10213618;28;20126;-62
2022/04/10 11:57:11;;;;;;;2.95;1.85;;;;;;;10.24;42.15;100582.69;10214819;28;20126;-62
2022/04/10 12:02:17;;;;;;;3.25;1.73;;;;;;;9.91;43.30;100559.44;10215181;28;20131;-62
2022/04/10 12:07:20;;;;;;;3.53;2.33;;;;;;;9.64;44.72;100567.59;10218911;28;20175;-62
2022/04/10 12:12:36;;;;;;;2.78;2.38;;;;;;;9.55;45.87;100575.25;10219918;28;20138;-62
2022/04/10 12:17:37;;;;;;;3.50;2.72;;;;;;;9.97;46.66;100600.66;10217950;28;20051;-60
2022/04/10 12:22:58;;;;;;;7.72;4.90;;;;;;;10.63;44.21;100582.53;10213649;28;20062;-64
2022/04/10 12:28:00;;;;;;;4.10;1.92;;;;;;;11.64;40.85;100584.47;10211534;28;20081;-60
2022/04/10 12:33:01;;;;;;;2.33;1.05;;;;;;;11.52;39.35;100574.78;10208673;28;20055;-62
2022/04/10 12:38:03;;;;;;;2.40;1.60;;;;;;;11.42;41.20;100589.81;10213815;28;20047;-63
2022/04/10 12:43:05;;;;;;;2.53;1.45;;;;;;;11.74;40.49;100589.06;10211372;28;20059;-63
2022/04/10 12:48:19;;;;;;;2.55;1.40;;;;;;;12.41;37.88;100589.94;10214949;28;20061;-63
2022/04/10 12:53:21;;;;;;;3.43;1.57;;;;;;;13.61;36.54;100556.47;10214174;28;20057;-61
2022/04/10 12:58:26;;;;;;;3.00;1.73;;;;;;;15.03;35.86;100578.44;10218532;28;20802;-62
2022/04/10 13:03:29;;;;;;;3.35;0.80;;;;;;;15.24;31.67;100576.53;10214273;28;20054;-63
2022/04/10 13:08:36;;;;;;;1.75;0.50;;;;;;;14.90;30.67;100574.38;10223837;28;20183;-61
2022/04/10 13:14:03;;;;;;;3.72;0.80;;;;;;;13.47;32.65;100569.41;10236236;28;20139;-63
2022/04/10 13:19:06;;;;;;;2.85;0.88;;;;;;;12.80;35.04;100571.53;10221250;28;20205;-62
2022/04/10 13:24:08;;;;;;;2.10;0.87;;;;;;;12.45;35.08;100578.03;10222044;28;20835;-60
2022/04/10 13:29:11;;;;;;;2.10;1.30;;;;;;;13.08;34.36;100572.69;10224734;28;20138;-61
2022/04/10 13:34:13;;;;;;;2.35;0.90;;;;;;;13.13;33.20;100570.47;10236766;28;20097;-62
2022/04/10 13:39:17;;;;;;;15.15;13.75;;;;;;;13.47;33.48;100529.28;10236000;28;20058;-61
2022/04/10 13:44:18;;;;;;;1.70;1.13;;;;;;;14.50;33.19;100552.97;10232313;28;20062;-60
2022/04/10 13:49:19;;;;;;;2.22;1.48;;;;;;;14.97;31.59;100543.34;10231507;28;20138;-61
2022/04/10 13:54:21;;;;;;;2.00;0.98;;;;;;;14.51;30.38;100537.72;10236485;28;20146;-62
2022/04/10 13:59:22;;;;;;;15.35;13.75;;;;;;;14.47;30.66;100531.81;10251369;28;20359;-67
2022/04/10 14:04:24;;;;;;;2.25;0.90;;;;;;;14.57;30.36;100536.31;10233282;28;20047;-61
2022/04/10 14:09:33;;;;;;;2.33;1.20;;;;;;;13.67;31.82;100487.38;10236027;28;20051;-62
2022/04/10 14:14:36;;;;;;;1.93;0.63;;;;;;;13.44;32.85;100546.44;10232705;28;20427;-62
2022/04/10 14:19:38;;;;;;;4.13;1.77;;;;;;;13.25;34.29;100528.47;10231818;28;20150;-62
2022/04/10 14:24:39;;;;;;;2.17;0.93;;;;;;;13.32;34.44;100534.13;10233623;28;20055;-62
2022/04/10 14:29:40;;;;;;;1.75;1.02;;;;;;;13.36;33.98;100504.34;10233565;28;20725;-62
2022/04/10 14:34:42;;;;;;;1.67;0.68;;;;;;;13.61;32.90;100513.69;10246544;28;20054;-61
2022/04/10 14:39:43;;;;;;;1.88;0.73;;;;;;;13.69;32.04;100514.84;10231492;28;20067;-62
2022/04/10 14:44:46;;;;;;;1.10;0.80;;;;;;;13.86;32.09;100513.34;10238740;28;20074;-61
2022/04/10 14:49:47;;;;;;;2.97;1.52;;;;;;;13.33;33.26;100512.59;10243979;28;20066;-63
2022/04/10 14:54:48;;;;;;;3.13;1.20;;;;;;;13.42;33.15;100509.16;10242783;28;20136;-62
2022/04/10 14:59:50;;;;;;;2.95;1.35;;;;;;;14.10;31.96;100510.25;10248200;28;20051;-61
2022/04/10 15:04:51;;;;;;;2.75;1.05;;;;;;;13.46;32.60;100500.84;10242030;28;20131;-62
2022/04/10 15:09:53;;;;;;;1.65;0.77;;;;;;;12.80;32.31;100507.41;10240672;28;20134;-62
2022/04/10 15:14:56;;;;;;;2.35;0.80;;;;;;;12.59;31.92;100505.59;10243514;28;20104;-62
2022/04/10 15:19:58;;;;;;;1.75;0.88;;;;;;;12.13;31.75;100499.66;10239931;28;20118;-62
2022/04/10 15:24:59;;;;;;;2.95;0.95;;;;;;;12.10;32.43;100494.56;10239939;28;20058;-61
2022/04/10 15:30:04;;;;;;;1.48;0.98;;;;;;;12.36;32.61;100494.22;10239203;28;20051;-62
2022/04/10 15:35:06;;;;;;;1.33;0.80;;;;;;;12.14;32.04;100487.16;10232214;28;20130;-62
2022/04/10 15:40:08;;;;;;;3.17;0.68;;;;;;;12.05;31.60;100495.94;10229137;28;20055;-62
2022/04/10 15:45:10;;;;;;;1.75;0.63;;;;;;;12.32;32.58;100492.75;10234284;28;20055;-62
2022/04/10 15:50:12;;;;;;;3.60;1.55;;;;;;;12.11;33.65;100482.91;10231985;28;20051;-62
2022/04/10 15:55:14;;;;;;;2.47;1.15;;;;;;;12.24;34.26;100496.09;10227959;28;20146;-62
2022/04/10 16:00:17;;;;;;;3.22;1.40;;;;;;;12.05;35.31;100496.75;10234282;28;20577;-61
2022/04/10 16:05:20;;;;;;;3.42;1.48;;;;;;;12.08;35.05;100496.50;10228300;28;20051;-60
2022/04/10 16:10:24;;;;;;;1.92;1.30;;;;;;;11.87;35.41;100472.41;10234323;28;20057;-61
2022/04/10 16:15:26;;;;;;;;;;;;;;;11.97;35.94;100510.72;10230137;28;20065;-60
2022/04/10 16:20:27;;;;;;;4.28;1.75;;;;;;;11.96;35.89;100503.69;10225927;28;20305;-62
2022/04/10 16:25:29;;;;;;;2.92;1.52;;;;;;;11.88;35.67;100502.63;10230294;28;20620;-61
2022/04/10 16:30:30;;;;;;;2.50;1.00;;;;;;;11.76;35.75;100507.13;10225158;28;20055;-61
2022/04/10 16:35:32;;;;;;;2.90;1.45;;;;;;;11.78;35.19;100499.84;10219898;28;20537;-63
2022/04/10 16:40:33;;;;;;;2.22;0.80;;;;;;;11.97;32.96;100505.41;10217601;28;20055;-64
2022/04/10 16:45:37;;;;;;;3.65;1.50;;;;;;;12.02;32.51;100491.69;10220694;28;20059;-61
2022/04/10 16:50:38;;;;;;;2.28;0.70;;;;;;;11.78;31.89;100486.50;10237744;28;20530;-61
2022/04/10 16:55:40;;;;;;;1.00;0.75;;;;;;;11.61;31.80;100485.22;10223896;28;20051;-63
2022/04/10 17:00:41;;;;;;;1.70;0.70;;;;;;;11.55;32.21;100499.91;10225038;28;20062;-61
2022/04/10 17:05:43;;;;;;;1.58;0.60;;;;;;;11.30;31.77;100485.03;10220374;28;20070;-62
2022/04/10 17:10:44;;;;;;;1.48;0.65;;;;;;;11.05;32.89;100512.75;10227324;28;20054;-64
2022/04/10 17:15:46;;;;;;;1.70;0.77;;;;;;;11.27;33.59;100507.47;10240753;28;20070;-62
2022/04/10 17:20:47;;;;;;;3.65;0.98;;;;;;;11.35;33.54;100513.97;10223663;28;20051;-60
2022/04/10 17:25:49;;;;;;;2.10;0.68;;;;;;;11.44;33.02;100518.56;10222801;28;20059;-60
2022/04/10 17:30:50;;;;;;;3.08;1.42;;;;;;;11.20;33.69;100527.56;10217549;28;20055;-62
2022/04/10 17:35:51;;;;;;;2.55;1.20;;;;;;;11.21;34.25;100539.88;10216148;28;20058;-61
2022/04/10 17:41:00;;;;;;;2.17;1.33;;;;;;;11.21;35.48;100539.06;10220383;28;20593;-63
2022/04/10 17:46:04;;;;;;;2.83;1.13;;;;;;;11.22;35.91;100541.59;10220752;28;20055;-61
2022/04/10 17:51:12;;;;;;;4.20;2.72;;;;;;;11.12;35.72;100546.81;10216625;28;20073;-61
2022/04/10 17:56:15;;;;;;;3.55;1.23;;;;;;;10.91;35.97;100522.69;10218851;28;20055;-60
2022/04/10 18:01:17;;;;;;;2.92;1.30;;;;;;;10.80;37.27;100562.63;10221829;28;20058;-60
2022/04/10 18:06:18;;;;;;;3.78;1.60;;;;;;;10.57;39.56;100557.22;10220092;28;20077;-60
2022/04/10 18:11:20;;;;;;;5.45;1.95;;;;;;;10.53;41.66;100549.59;10219432;28;20197;-59
2022/04/10 18:16:21;;;;;;;5.57;2.15;;;;;;;10.51;42.50;100568.34;10222491;28;20133;-60
2022/04/10 18:21:23;;;;;;;2.75;1.83;;;;;;;10.44;43.03;100572.41;10219125;28;20108;-62
2022/04/10 18:26:24;;;;;;;2.92;1.95;;;;;;;10.33;43.29;100570.56;10215368;28;20206;-61
2022/04/10 18:31:26;;;;;;;4.70;1.83;;;;;;;10.26;43.50;100579.94;10215453;28;20162;-61
2022/04/10 18:36:28;;;;;;;8.43;3.53;;;;;;;10.25;43.55;100578.22;10215598;28;20064;-61
2022/04/10 18:41:29;;;;;;;5.60;2.20;;;;;;;10.11;41.54;100571.25;10220285;28;20807;-62
2022/04/10 18:46:31;;;;;;;4.82;1.42;;;;;;;10.18;40.69;100582.31;10217724;28;20406;-61
2022/04/10 18:51:32;;;;;;;2.65;1.27;;;;;;;10.26;41.40;100595.91;10222536;28;20050;-62
2022/04/10 18:56:34;;;;;;;4.13;1.42;;;;;;;10.15;41.07;100574.53;10215171;28;20055;-62
2022/04/10 19:01:35;;;;;;;2.85;1.85;;;;;;;10.15;40.28;100607.31;10219632;28;20557;-62
2022/04/10 19:06:37;;;;;;;2.72;1.80;;;;;;;10.14;41.87;100602.97;10218319;28;20073;-64
2022/04/10 19:11:38;;;;;;;2.63;1.90;;;;;;;10.04;42.18;100585.97;10218093;28;20054;-63
2022/04/10 19:16:40;;;;;;;3.20;1.88;;;;;;;10.07;42.90;100601.69;10220653;28;20055;-61
2022/04/10 19:21:41;;;;;;;4.43;2.00;;;;;;;9.89;42.05;100570.19;10215537;28;20094;-62
2022/04/10 19:26:43;;;;;;;4.53;2.10;;;;;;;9.91;42.35;100608.13;10216404;28;20050;-61
2022/04/10 19:31:44;;;;;;;3.63;2.58;;;;;;;9.79;42.68;100593.06;10213570;28;20065;-62
2022/04/10 19:36:51;;;;;;;3.70;2.78;;;;;;;9.71;42.79;100600.72;10214880;28;20051;-60
2022/04/10 19:41:53;;;;;;;3.65;2.53;;;;;;;9.79;43.34;100616.13;10213702;28;20410;-60
2022/04/10 19:46:54;;;;;;;4.32;2.83;;;;;;;9.70;43.35;100615.00;10212360;28;20065;-60
2022/04/10 19:51:56;;;;;;;4.43;2.67;;;;;;;9.66;44.14;100618.84;10216823;28;20047;-62
2022/04/10 19:56:57;;;;;;;3.63;2.40;;;;;;;9.51;44.28;100610.97;10214827;28;20506;-61
2022/04/10 20:01:59;;;;;;;3.72;2.85;;;;;;;9.56;44.30;100615.97;10217443;28;20044;-61
2022/04/10 20:07:01;;;;;;;5.30;3.55;;;;;;;9.26;44.49;100597.72;10229200;28;20218;-61
2022/04/10 20:12:04;;;;;;;4.18;2.58;;;;;;;9.32;44.92;100626.50;10211587;28;20070;-61
2022/04/10 20:17:07;;;;;;;2.83;2.45;;;;;;;9.22;45.25;100620.13;10218546;28;20079;-61
2022/04/10 20:22:09;;;;;;;3.65;2.45;;;;;;;9.20;45.01;100626.41;10228153;28;20065;-63
2022/04/10 20:27:10;;;;;;;2.75;2.22;;;;;;;9.18;45.28;100630.13;10232045;28;20157;-62
2022/04/10 20:32:11;;;;;;;3.88;2.78;;;;;;;9.16;46.09;100634.69;10223196;28;20045;-61
2022/04/10 20:37:13;;;;;;;3.38;2.60;;;;;;;9.08;45.71;100629.88;10225731;28;20043;-62
2022/04/10 20:42:16;;;;;;;3.58;2.55;;;;;;;8.95;46.33;100613.13;10218994;28;20058;-62
2022/04/10 20:47:18;;;;;;;5.15;3.10;;;;;;;9.05;46.49;100627.44;10220031;28;20059;-61
2022/04/10 20:52:20;;;;;;;5.93;3.35;;;;;;;9.00;46.54;100616.28;10211068;28;20134;-61
2022/04/10 20:57:21;;;;;;;4.50;2.75;;;;;;;8.95;46.72;100631.69;10215794;28;20053;-60
2022/04/10 21:02:23;;;;;;;4.22;2.83;;;;;;;8.86;47.70;100619.88;10221689;28;20062;-61
2022/04/10 21:07:25;;;;;;;5.38;4.05;;;;;;;8.76;47.12;100608.19;10221788;28;20123;-61
2022/04/10 21:12:26;;;;;;;5.93;4.00;;;;;;;8.71;48.16;100597.88;10215209;28;20676;-60
2022/04/10 21:17:27;;;;;;;5.00;4.25;;;;;;;8.91;47.71;100616.91;10218812;28;20047;-61
2022/04/10 21:22:29;;;;;;;5.07;4.03;;;;;;;8.71;47.72;100611.16;10218695;28;20709;-61
2022/04/10 21:27:30;;;;;;;5.28;4.35;;;;;;;8.71;48.60;100620.91;10215119;28;20058;-59
2022/04/10 21:32:32;;;;;;;6.55;4.43;;;;;;;8.69;48.46;100618.34;10218967;28;20070;-61
2022/04/10 21:37:33;;;;;;;6.43;4.43;;;;;;;8.70;49.02;100619.22;10221742;28;20060;-61
2022/04/10 21:42:34;;;;;;;4.63;4.13;;;;;;;8.32;49.65;100588.94;10238509;28;20125;-60
2022/04/10 21:47:36;;;;;;;9.02;4.57;;;;;;;8.41;49.96;100621.97;10240565;28;20055;-60
2022/04/10 21:52:37;;;;;;;6.15;5.47;;;;;;;8.35;50.05;100622.34;10234822;28;20064;-61
2022/04/10 21:57:39;;;;;;;5.38;4.45;;;;;;;8.37;51.04;100620.47;10236456;28;20129;-61
2022/04/10 22:02:40;;;;;;;6.47;5.57;;;;;;;8.29;50.44;100605.06;10235969;28;20055;-65
2022/04/10 22:07:41;;;;;;;6.68;5.00;;;;;;;8.23;50.82;100587.72;10239480;28;20717;-62
2022/04/10 22:12:43;;;;;;;5.53;4.50;;;;;;;8.12;51.44;100592.88;10238282;28;20061;-61
2022/04/10 22:17:45;;;;;;;7.10;5.07;;;;;;;7.96;51.85;100574.47;10241664;28;20499;-61
2022/04/10 22:22:46;;;;;;;6.95;5.72;;;;;;;8.18;53.09;100619.00;10233637;28;20138;-61
2022/04/10 22:27:47;;;;;;;5.68;5.18;;;;;;;8.25;52.64;100628.25;10231735;28;20130;-62
2022/04/10 22:32:49;;;;;;;7.70;5.82;;;;;;;8.19;52.53;100625.16;10229420;28;20086;-62
2022/04/10 22:37:50;;;;;;;6.50;5.53;;;;;;;8.01;52.87;100627.19;10234529;28;20425;-61
2022/04/10 22:42:52;;;;;;;7.95;7.15;;;;;;;7.89;53.63;100636.78;10231089;28;20419;-61
2022/04/10 22:47:53;;;;;;;9.95;7.22;;;;;;;7.81;53.66;100631.09;10236895;28;20226;-61
2022/04/10 22:52:55;;;;;;;7.38;6.57;;;;;;;7.71;53.24;100636.97;10232218;28;20129;-61
2022/04/10 22:57:57;;;;;;;7.32;5.90;;;;;;;7.65;52.79;100636.50;10234538;28;20143;-60
2022/04/10 23:02:58;;;;;;;8.85;6.05;;;;;;;7.70;53.23;100642.38;10237707;28;20062;-59
2022/04/10 23:08:00;;;;;;;7.05;6.00;;;;;;;7.52;54.35;100649.66;10241228;28;20137;-61
2022/04/10 23:13:02;;;;;;;7.00;6.30;;;;;;;7.41;55.05;100651.16;10250048;28;20507;-59
2022/04/10 23:18:03;;;;;;;6.90;6.03;;;;;;;7.39;55.66;100652.22;10237856;28;20050;-61
2022/04/10 23:23:05;;;;;;;8.52;6.55;;;;;;;7.22;56.20;100624.09;10245039;28;20051;-60
2022/04/10 23:28:06;;;;;;;7.43;6.35;;;;;;;7.34;56.68;100643.69;10239041;28;20055;-60